sensor_id;sensor_type;location;lat;lon;timestamp;P1;durP1;ratioP1;P2;durP2;ratioP2
5900;SDS011;2976;49.764;9.796;2022-12-10T00:01:41;29.13;;;13.57;;
5900;SDS011;2976;49.764;9.796;2022-12-10T00:04:08;28.50;;;11.93;;
5900;SDS011;2976;49.764;9.796;2022-12-10T00:06:35;22.30;;;12.57;;
5900;SDS011;2976;49.764;9.796;2022-12-10T00:09:02;24.80;;;12.57;;
5900;SDS011;2976;49.764;9.796;2022-12-10T00:11:29;26.03;;;12.20;;
5900;SDS011;2976;49.764;9.796;2022-12-10T00:13:55;20.97;;;12.93;;
5900;SDS011;2976;49.764;9.796;2022-12-10T00:16:23;21.50;;;11.93;;
5900;SDS011;2976;49.764;9.796;2022-12-10T00:18:51;22.40;;;12.40;;
5900;SDS011;2976;49.764;9.796;2022-12-10T00:21:28;22.87;;;12.27;;
5900;SDS011;2976;49.764;9.796;2022-12-10T00:23:56;27.23;;;12.57;;
5900;SDS011;2976;49.764;9.796;2022-12-10T00:26:23;18.67;;;10.77;;
5900;SDS011;2976;49.764;9.796;2022-12-10T00:28:51;23.33;;;11.90;;
5900;SDS011;2976;49.764;9.796;2022-12-10T00:31:18;18.83;;;11.13;;
5900;SDS011;2976;49.764;9.796;2022-12-10T00:33:46;21.90;;;11.30;;
5900;SDS011;2976;49.764;9.796;2022-12-10T00:38:39;22.40;;;11.90;;
5900;SDS011;2976;49.764;9.796;2022-12-10T00:41:06;22.17;;;11.80;;
5900;SDS011;2976;49.764;9.796;2022-12-10T00:43:32;21.80;;;11.40;;
5900;SDS011;2976;49.764;9.796;2022-12-10T00:45:58;18.00;;;10.37;;
5900;SDS011;2976;49.764;9.796;2022-12-10T00:48:24;17.00;;;10.10;;
5900;SDS011;2976;49.764;9.796;2022-12-10T00:51:00;17.73;;;10.67;;
5900;SDS011;2976;49.764;9.796;2022-12-10T00:53:31;21.30;;;10.80;;
5900;SDS011;2976;49.764;9.796;2022-12-10T00:55:58;16.60;;;10.00;;
5900;SDS011;2976;49.764;9.796;2022-12-10T00:58:28;21.53;;;11.90;;
5900;SDS011;2976;49.764;9.796;2022-12-10T01:01:01;26.17;;;11.07;;
5900;SDS011;2976;49.764;9.796;2022-12-10T01:03:46;22.20;;;11.63;;
5900;SDS011;2976;49.764;9.796;2022-12-10T01:06:21;16.20;;;9.70;;
5900;SDS011;2976;49.764;9.796;2022-12-10T01:08:52;19.23;;;10.73;;
5900;SDS011;2976;49.764;9.796;2022-12-10T01:11:20;22.60;;;12.20;;
5900;SDS011;2976;49.764;9.796;2022-12-10T01:13:49;21.37;;;10.90;;
5900;SDS011;2976;49.764;9.796;2022-12-10T01:16:18;20.07;;;11.10;;
5900;SDS011;2976;49.764;9.796;2022-12-10T01:18:46;24.20;;;13.47;;
5900;SDS011;2976;49.764;9.796;2022-12-10T01:21:13;22.57;;;12.20;;
5900;SDS011;2976;49.764;9.796;2022-12-10T01:23:41;20.93;;;11.47;;
5900;SDS011;2976;49.764;9.796;2022-12-10T01:26:08;24.07;;;11.90;;
5900;SDS011;2976;49.764;9.796;2022-12-10T01:28:37;21.60;;;12.30;;
5900;SDS011;2976;49.764;9.796;2022-12-10T01:31:05;22.73;;;11.27;;
5900;SDS011;2976;49.764;9.796;2022-12-10T01:33:34;22.23;;;11.40;;
5900;SDS011;2976;49.764;9.796;2022-12-10T01:36:03;27.67;;;13.50;;
5900;SDS011;2976;49.764;9.796;2022-12-10T01:38:30;18.10;;;11.33;;
5900;SDS011;2976;49.764;9.796;2022-12-10T01:40:56;22.53;;;12.80;;
5900;SDS011;2976;49.764;9.796;2022-12-10T01:43:22;25.00;;;13.37;;
5900;SDS011;2976;49.764;9.796;2022-12-10T01:45:47;28.50;;;12.87;;
5900;SDS011;2976;49.764;9.796;2022-12-10T01:48:13;24.03;;;12.73;;
5900;SDS011;2976;49.764;9.796;2022-12-10T01:50:38;21.27;;;12.30;;
5900;SDS011;2976;49.764;9.796;2022-12-10T01:53:04;24.47;;;14.27;;
5900;SDS011;2976;49.764;9.796;2022-12-10T01:55:38;23.27;;;12.80;;
5900;SDS011;2976;49.764;9.796;2022-12-10T01:58:13;29.70;;;13.20;;
5900;SDS011;2976;49.764;9.796;2022-12-10T02:00:43;31.53;;;15.37;;
5900;SDS011;2976;49.764;9.796;2022-12-10T02:03:34;28.73;;;13.20;;
5900;SDS011;2976;49.764;9.796;2022-12-10T02:06:28;28.27;;;13.40;;
5900;SDS011;2976;49.764;9.796;2022-12-10T02:11:33;25.80;;;12.53;;
5900;SDS011;2976;49.764;9.796;2022-12-10T02:14:08;28.00;;;12.73;;
5900;SDS011;2976;49.764;9.796;2022-12-10T02:16:44;21.30;;;12.33;;
5900;SDS011;2976;49.764;9.796;2022-12-10T02:22:28;19.23;;;10.60;;
5900;SDS011;2976;49.764;9.796;2022-12-10T02:24:57;22.00;;;12.13;;
5900;SDS011;2976;49.764;9.796;2022-12-10T02:27:26;18.97;;;10.73;;
5900;SDS011;2976;49.764;9.796;2022-12-10T02:30:00;27.83;;;13.20;;
5900;SDS011;2976;49.764;9.796;2022-12-10T02:32:27;27.90;;;13.43;;
5900;SDS011;2976;49.764;9.796;2022-12-10T02:34:58;27.30;;;12.60;;
5900;SDS011;2976;49.764;9.796;2022-12-10T02:37:30;25.10;;;13.00;;
5900;SDS011;2976;49.764;9.796;2022-12-10T02:39:58;22.40;;;12.47;;
5900;SDS011;2976;49.764;9.796;2022-12-10T02:42:29;24.40;;;12.90;;
5900;SDS011;2976;49.764;9.796;2022-12-10T02:44:56;25.67;;;14.20;;
5900;SDS011;2976;49.764;9.796;2022-12-10T02:47:22;24.63;;;12.25;;
5900;SDS011;2976;49.764;9.796;2022-12-10T02:49:51;26.42;;;13.10;;
5900;SDS011;2976;49.764;9.796;2022-12-10T02:52:19;28.03;;;12.50;;
5900;SDS011;2976;49.764;9.796;2022-12-10T02:54:46;24.33;;;12.83;;
5900;SDS011;2976;49.764;9.796;2022-12-10T02:57:30;24.67;;;13.63;;
5900;SDS011;2976;49.764;9.796;2022-12-10T03:05:23;26.50;;;13.63;;
5900;SDS011;2976;49.764;9.796;2022-12-10T03:07:57;22.10;;;12.17;;
5900;SDS011;2976;49.764;9.796;2022-12-10T03:10:30;26.40;;;14.03;;
5900;SDS011;2976;49.764;9.796;2022-12-10T03:13:21;32.70;;;12.60;;
5900;SDS011;2976;49.764;9.796;2022-12-10T03:15:53;26.47;;;12.43;;
5900;SDS011;2976;49.764;9.796;2022-12-10T03:18:20;25.27;;;13.15;;
5900;SDS011;2976;49.764;9.796;2022-12-10T03:20:50;29.37;;;14.00;;
5900;SDS011;2976;49.764;9.796;2022-12-10T03:23:19;29.27;;;13.93;;
5900;SDS011;2976;49.764;9.796;2022-12-10T03:25:46;26.17;;;13.45;;
5900;SDS011;2976;49.764;9.796;2022-12-10T03:28:13;28.73;;;15.27;;
5900;SDS011;2976;49.764;9.796;2022-12-10T03:30:40;29.65;;;13.73;;
5900;SDS011;2976;49.764;9.796;2022-12-10T03:33:07;33.97;;;15.65;;
5900;SDS011;2976;49.764;9.796;2022-12-10T03:35:34;33.80;;;15.00;;
5900;SDS011;2976;49.764;9.796;2022-12-10T03:38:00;32.28;;;14.02;;
5900;SDS011;2976;49.764;9.796;2022-12-10T03:40:26;30.93;;;15.03;;
5900;SDS011;2976;49.764;9.796;2022-12-10T03:42:51;33.33;;;16.60;;
5900;SDS011;2976;49.764;9.796;2022-12-10T03:45:17;37.67;;;15.63;;
5900;SDS011;2976;49.764;9.796;2022-12-10T03:47:42;34.53;;;15.60;;
5900;SDS011;2976;49.764;9.796;2022-12-10T03:50:09;29.00;;;14.00;;
5900;SDS011;2976;49.764;9.796;2022-12-10T03:52:35;29.77;;;15.00;;
5900;SDS011;2976;49.764;9.796;2022-12-10T03:55:01;27.03;;;13.37;;
5900;SDS011;2976;49.764;9.796;2022-12-10T03:57:28;29.57;;;14.83;;
5900;SDS011;2976;49.764;9.796;2022-12-10T03:59:53;30.83;;;13.80;;
5900;SDS011;2976;49.764;9.796;2022-12-10T04:02:19;25.17;;;12.70;;
5900;SDS011;2976;49.764;9.796;2022-12-10T04:04:44;31.80;;;13.90;;
5900;SDS011;2976;49.764;9.796;2022-12-10T04:07:10;33.77;;;15.30;;
5900;SDS011;2976;49.764;9.796;2022-12-10T04:09:35;27.57;;;14.23;;
5900;SDS011;2976;49.764;9.796;2022-12-10T04:12:01;29.63;;;13.40;;
5900;SDS011;2976;49.764;9.796;2022-12-10T04:14:27;26.53;;;12.37;;
5900;SDS011;2976;49.764;9.796;2022-12-10T04:17:11;25.80;;;13.38;;
5900;SDS011;2976;49.764;9.796;2022-12-10T04:19:37;37.38;;;15.32;;
5900;SDS011;2976;49.764;9.796;2022-12-10T04:22:03;30.50;;;14.00;;
5900;SDS011;2976;49.764;9.796;2022-12-10T04:24:48;33.50;;;14.98;;
5900;SDS011;2976;49.764;9.796;2022-12-10T04:27:51;34.50;;;13.65;;
5900;SDS011;2976;49.764;9.796;2022-12-10T04:30:17;37.07;;;15.20;;
5900;SDS011;2976;49.764;9.796;2022-12-10T04:32:43;33.57;;;14.37;;
5900;SDS011;2976;49.764;9.796;2022-12-10T04:35:09;33.00;;;15.10;;
5900;SDS011;2976;49.764;9.796;2022-12-10T04:37:35;32.93;;;15.07;;
5900;SDS011;2976;49.764;9.796;2022-12-10T04:40:01;37.07;;;14.93;;
5900;SDS011;2976;49.764;9.796;2022-12-10T04:42:27;32.78;;;13.75;;
5900;SDS011;2976;49.764;9.796;2022-12-10T04:44:52;33.50;;;14.80;;
5900;SDS011;2976;49.764;9.796;2022-12-10T04:47:18;34.20;;;15.07;;
5900;SDS011;2976;49.764;9.796;2022-12-10T04:49:44;30.23;;;14.20;;
5900;SDS011;2976;49.764;9.796;2022-12-10T04:52:10;31.87;;;15.10;;
5900;SDS011;2976;49.764;9.796;2022-12-10T04:54:37;33.80;;;14.33;;
5900;SDS011;2976;49.764;9.796;2022-12-10T04:57:03;34.00;;;15.87;;
5900;SDS011;2976;49.764;9.796;2022-12-10T04:59:28;36.20;;;14.40;;
5900;SDS011;2976;49.764;9.796;2022-12-10T05:01:54;34.53;;;15.57;;
5900;SDS011;2976;49.764;9.796;2022-12-10T05:04:19;28.27;;;13.03;;
5900;SDS011;2976;49.764;9.796;2022-12-10T05:06:47;34.23;;;16.37;;
5900;SDS011;2976;49.764;9.796;2022-12-10T05:09:13;32.47;;;14.27;;
5900;SDS011;2976;49.764;9.796;2022-12-10T05:11:39;34.27;;;15.30;;
5900;SDS011;2976;49.764;9.796;2022-12-10T05:14:05;35.38;;;15.10;;
5900;SDS011;2976;49.764;9.796;2022-12-10T05:16:31;32.63;;;15.65;;
5900;SDS011;2976;49.764;9.796;2022-12-10T05:18:58;43.15;;;15.85;;
5900;SDS011;2976;49.764;9.796;2022-12-10T05:21:25;31.52;;;15.40;;
5900;SDS011;2976;49.764;9.796;2022-12-10T05:24:11;37.28;;;15.50;;
5900;SDS011;2976;49.764;9.796;2022-12-10T05:26:38;39.05;;;16.30;;
5900;SDS011;2976;49.764;9.796;2022-12-10T05:29:03;40.67;;;16.10;;
5900;SDS011;2976;49.764;9.796;2022-12-10T05:31:29;42.83;;;18.15;;
5900;SDS011;2976;49.764;9.796;2022-12-10T05:33:56;45.03;;;18.20;;
5900;SDS011;2976;49.764;9.796;2022-12-10T05:36:24;44.47;;;18.53;;
5900;SDS011;2976;49.764;9.796;2022-12-10T05:38:52;39.97;;;17.70;;
5900;SDS011;2976;49.764;9.796;2022-12-10T05:41:23;42.80;;;17.95;;
5900;SDS011;2976;49.764;9.796;2022-12-10T05:43:50;42.10;;;19.55;;
5900;SDS011;2976;49.764;9.796;2022-12-10T05:46:20;43.10;;;18.60;;
5900;SDS011;2976;49.764;9.796;2022-12-10T05:48:49;43.50;;;18.45;;
5900;SDS011;2976;49.764;9.796;2022-12-10T05:51:19;45.47;;;18.95;;
5900;SDS011;2976;49.764;9.796;2022-12-10T05:53:47;50.50;;;17.45;;
5900;SDS011;2976;49.764;9.796;2022-12-10T05:56:14;47.58;;;18.27;;
5900;SDS011;2976;49.764;9.796;2022-12-10T05:58:43;53.38;;;18.92;;
5900;SDS011;2976;49.764;9.796;2022-12-10T06:01:11;38.38;;;17.83;;
5900;SDS011;2976;49.764;9.796;2022-12-10T06:03:37;46.95;;;16.92;;
5900;SDS011;2976;49.764;9.796;2022-12-10T06:06:03;54.40;;;18.53;;
5900;SDS011;2976;49.764;9.796;2022-12-10T06:08:30;49.90;;;18.33;;
5900;SDS011;2976;49.764;9.796;2022-12-10T06:11:00;39.88;;;18.95;;
5900;SDS011;2976;49.764;9.796;2022-12-10T06:13:26;45.00;;;19.50;;
5900;SDS011;2976;49.764;9.796;2022-12-10T06:15:52;57.17;;;21.70;;
5900;SDS011;2976;49.764;9.796;2022-12-10T06:18:17;51.73;;;21.17;;
5900;SDS011;2976;49.764;9.796;2022-12-10T06:20:43;44.87;;;19.67;;
5900;SDS011;2976;49.764;9.796;2022-12-10T06:23:08;44.93;;;18.60;;
5900;SDS011;2976;49.764;9.796;2022-12-10T06:25:37;52.83;;;20.97;;
5900;SDS011;2976;49.764;9.796;2022-12-10T06:28:03;44.70;;;20.17;;
5900;SDS011;2976;49.764;9.796;2022-12-10T06:30:28;41.93;;;18.10;;
5900;SDS011;2976;49.764;9.796;2022-12-10T06:32:54;36.13;;;18.27;;
5900;SDS011;2976;49.764;9.796;2022-12-10T06:35:20;41.73;;;19.10;;
5900;SDS011;2976;49.764;9.796;2022-12-10T06:37:45;48.13;;;18.10;;
5900;SDS011;2976;49.764;9.796;2022-12-10T06:40:11;48.13;;;20.17;;
5900;SDS011;2976;49.764;9.796;2022-12-10T06:42:36;48.63;;;20.87;;
5900;SDS011;2976;49.764;9.796;2022-12-10T06:45:02;44.50;;;17.60;;
5900;SDS011;2976;49.764;9.796;2022-12-10T06:47:28;46.67;;;17.40;;
5900;SDS011;2976;49.764;9.796;2022-12-10T06:49:53;36.87;;;17.43;;
5900;SDS011;2976;49.764;9.796;2022-12-10T06:52:19;40.20;;;19.30;;
5900;SDS011;2976;49.764;9.796;2022-12-10T06:54:45;45.87;;;18.73;;
5900;SDS011;2976;49.764;9.796;2022-12-10T06:57:10;52.23;;;23.00;;
5900;SDS011;2976;49.764;9.796;2022-12-10T06:59:36;44.17;;;22.10;;
5900;SDS011;2976;49.764;9.796;2022-12-10T07:02:01;47.10;;;21.23;;
5900;SDS011;2976;49.764;9.796;2022-12-10T07:04:27;43.67;;;20.40;;
5900;SDS011;2976;49.764;9.796;2022-12-10T07:06:52;45.73;;;21.83;;
5900;SDS011;2976;49.764;9.796;2022-12-10T07:09:18;48.53;;;20.10;;
5900;SDS011;2976;49.764;9.796;2022-12-10T07:11:44;53.23;;;22.50;;
5900;SDS011;2976;49.764;9.796;2022-12-10T07:14:13;51.43;;;21.70;;
5900;SDS011;2976;49.764;9.796;2022-12-10T07:16:40;49.50;;;21.23;;
5900;SDS011;2976;49.764;9.796;2022-12-10T07:19:07;50.88;;;21.08;;
5900;SDS011;2976;49.764;9.796;2022-12-10T07:21:35;48.17;;;20.40;;
5900;SDS011;2976;49.764;9.796;2022-12-10T07:24:05;39.60;;;17.63;;
5900;SDS011;2976;49.764;9.796;2022-12-10T07:26:36;55.57;;;20.30;;
5900;SDS011;2976;49.764;9.796;2022-12-10T07:29:05;39.47;;;17.17;;
5900;SDS011;2976;49.764;9.796;2022-12-10T07:31:32;31.90;;;16.60;;
5900;SDS011;2976;49.764;9.796;2022-12-10T07:33:58;40.80;;;15.40;;
5900;SDS011;2976;49.764;9.796;2022-12-10T07:36:25;34.35;;;15.85;;
5900;SDS011;2976;49.764;9.796;2022-12-10T07:38:51;38.13;;;16.30;;
5900;SDS011;2976;49.764;9.796;2022-12-10T07:41:19;33.07;;;16.80;;
5900;SDS011;2976;49.764;9.796;2022-12-10T07:43:45;32.53;;;14.77;;
5900;SDS011;2976;49.764;9.796;2022-12-10T07:46:15;32.80;;;15.13;;
5900;SDS011;2976;49.764;9.796;2022-12-10T07:48:46;36.53;;;16.50;;
5900;SDS011;2976;49.764;9.796;2022-12-10T07:51:13;37.70;;;16.97;;
5900;SDS011;2976;49.764;9.796;2022-12-10T07:53:39;37.33;;;16.20;;
5900;SDS011;2976;49.764;9.796;2022-12-10T07:56:05;41.40;;;17.70;;
5900;SDS011;2976;49.764;9.796;2022-12-10T07:58:31;37.57;;;18.37;;
5900;SDS011;2976;49.764;9.796;2022-12-10T08:00:56;37.60;;;17.40;;
5900;SDS011;2976;49.764;9.796;2022-12-10T08:03:22;40.30;;;17.67;;
5900;SDS011;2976;49.764;9.796;2022-12-10T08:05:49;40.27;;;17.97;;
5900;SDS011;2976;49.764;9.796;2022-12-10T08:08:25;38.87;;;18.60;;
5900;SDS011;2976;49.764;9.796;2022-12-10T08:10:50;40.30;;;17.43;;
5900;SDS011;2976;49.764;9.796;2022-12-10T08:13:16;48.10;;;17.77;;
5900;SDS011;2976;49.764;9.796;2022-12-10T08:15:42;41.50;;;17.33;;
5900;SDS011;2976;49.764;9.796;2022-12-10T08:18:07;38.43;;;17.63;;
5900;SDS011;2976;49.764;9.796;2022-12-10T08:20:33;35.37;;;17.80;;
5900;SDS011;2976;49.764;9.796;2022-12-10T08:22:59;33.33;;;16.83;;
5900;SDS011;2976;49.764;9.796;2022-12-10T08:25:25;30.80;;;15.93;;
5900;SDS011;2976;49.764;9.796;2022-12-10T08:27:51;39.23;;;17.43;;
5900;SDS011;2976;49.764;9.796;2022-12-10T08:30:16;47.07;;;17.67;;
5900;SDS011;2976;49.764;9.796;2022-12-10T08:32:42;41.10;;;18.17;;
5900;SDS011;2976;49.764;9.796;2022-12-10T08:35:08;38.80;;;17.30;;
5900;SDS011;2976;49.764;9.796;2022-12-10T08:37:33;34.73;;;16.97;;
5900;SDS011;2976;49.764;9.796;2022-12-10T08:39:59;37.17;;;18.03;;
5900;SDS011;2976;49.764;9.796;2022-12-10T08:42:24;40.17;;;17.40;;
5900;SDS011;2976;49.764;9.796;2022-12-10T08:44:50;44.53;;;17.53;;
5900;SDS011;2976;49.764;9.796;2022-12-10T08:47:16;32.87;;;16.67;;
5900;SDS011;2976;49.764;9.796;2022-12-10T08:49:41;36.90;;;19.23;;
5900;SDS011;2976;49.764;9.796;2022-12-10T08:52:07;27.37;;;15.90;;
5900;SDS011;2976;49.764;9.796;2022-12-10T08:54:32;31.40;;;16.13;;
5900;SDS011;2976;49.764;9.796;2022-12-10T08:56:58;32.03;;;17.30;;
5900;SDS011;2976;49.764;9.796;2022-12-10T08:59:23;32.07;;;14.77;;
5900;SDS011;2976;49.764;9.796;2022-12-10T09:01:50;39.00;;;16.60;;
5900;SDS011;2976;49.764;9.796;2022-12-10T09:04:16;41.50;;;17.27;;
5900;SDS011;2976;49.764;9.796;2022-12-10T09:06:42;32.60;;;16.87;;
5900;SDS011;2976;49.764;9.796;2022-12-10T09:09:07;28.83;;;16.60;;
5900;SDS011;2976;49.764;9.796;2022-12-10T09:11:33;37.93;;;18.03;;
5900;SDS011;2976;49.764;9.796;2022-12-10T09:13:59;32.27;;;15.60;;
5900;SDS011;2976;49.764;9.796;2022-12-10T09:16:33;31.60;;;16.13;;
5900;SDS011;2976;49.764;9.796;2022-12-10T09:19:00;37.77;;;17.07;;
5900;SDS011;2976;49.764;9.796;2022-12-10T09:21:27;31.30;;;15.90;;
5900;SDS011;2976;49.764;9.796;2022-12-10T09:23:54;34.70;;;17.37;;
5900;SDS011;2976;49.764;9.796;2022-12-10T09:26:20;26.50;;;14.67;;
5900;SDS011;2976;49.764;9.796;2022-12-10T09:28:46;33.77;;;17.10;;
5900;SDS011;2976;49.764;9.796;2022-12-10T09:31:13;34.37;;;16.90;;
5900;SDS011;2976;49.764;9.796;2022-12-10T09:33:40;28.20;;;15.40;;
5900;SDS011;2976;49.764;9.796;2022-12-10T09:36:06;30.50;;;16.07;;
5900;SDS011;2976;49.764;9.796;2022-12-10T09:38:34;32.03;;;14.83;;
5900;SDS011;2976;49.764;9.796;2022-12-10T09:41:05;29.67;;;15.63;;
5900;SDS011;2976;49.764;9.796;2022-12-10T09:46:53;28.13;;;15.90;;
5900;SDS011;2976;49.764;9.796;2022-12-10T09:52:23;26.00;;;14.00;;
5900;SDS011;2976;49.764;9.796;2022-12-10T09:54:53;29.47;;;16.00;;
5900;SDS011;2976;49.764;9.796;2022-12-10T09:57:35;26.87;;;14.43;;
5900;SDS011;2976;49.764;9.796;2022-12-10T10:00:06;27.83;;;14.40;;
5900;SDS011;2976;49.764;9.796;2022-12-10T10:02:40;24.60;;;13.47;;
5900;SDS011;2976;49.764;9.796;2022-12-10T10:07:33;26.40;;;14.63;;
5900;SDS011;2976;49.764;9.796;2022-12-10T10:10:10;24.23;;;14.20;;
5900;SDS011;2976;49.764;9.796;2022-12-10T10:12:48;23.13;;;14.10;;
5900;SDS011;2976;49.764;9.796;2022-12-10T10:15:42;22.60;;;13.00;;
5900;SDS011;2976;49.764;9.796;2022-12-10T10:18:14;29.80;;;14.73;;
5900;SDS011;2976;49.764;9.796;2022-12-10T10:20:49;21.03;;;12.57;;
5900;SDS011;2976;49.764;9.796;2022-12-10T10:23:15;22.83;;;13.90;;
5900;SDS011;2976;49.764;9.796;2022-12-10T10:25:42;25.10;;;14.00;;
5900;SDS011;2976;49.764;9.796;2022-12-10T10:28:13;25.10;;;14.33;;
5900;SDS011;2976;49.764;9.796;2022-12-10T10:30:46;23.53;;;13.07;;
5900;SDS011;2976;49.764;9.796;2022-12-10T10:33:12;25.10;;;13.57;;
5900;SDS011;2976;49.764;9.796;2022-12-10T10:35:49;26.00;;;14.40;;
5900;SDS011;2976;49.764;9.796;2022-12-10T10:38:24;27.80;;;14.53;;
5900;SDS011;2976;49.764;9.796;2022-12-10T10:40:56;24.30;;;13.60;;
5900;SDS011;2976;49.764;9.796;2022-12-10T10:43:30;31.27;;;15.10;;
5900;SDS011;2976;49.764;9.796;2022-12-10T10:46:02;30.83;;;14.67;;
5900;SDS011;2976;49.764;9.796;2022-12-10T10:48:31;27.27;;;13.43;;
5900;SDS011;2976;49.764;9.796;2022-12-10T10:51:08;27.53;;;14.03;;
5900;SDS011;2976;49.764;9.796;2022-12-10T10:53:47;23.90;;;12.57;;
5900;SDS011;2976;49.764;9.796;2022-12-10T10:56:18;26.60;;;13.00;;
5900;SDS011;2976;49.764;9.796;2022-12-10T10:59:27;24.40;;;13.00;;
5900;SDS011;2976;49.764;9.796;2022-12-10T11:04:13;22.40;;;12.87;;
5900;SDS011;2976;49.764;9.796;2022-12-10T11:06:40;29.20;;;14.47;;
5900;SDS011;2976;49.764;9.796;2022-12-10T11:09:06;21.90;;;11.90;;
5900;SDS011;2976;49.764;9.796;2022-12-10T11:11:51;26.70;;;14.27;;
5900;SDS011;2976;49.764;9.796;2022-12-10T11:14:26;24.50;;;14.07;;
5900;SDS011;2976;49.764;9.796;2022-12-10T11:17:08;24.73;;;12.60;;
5900;SDS011;2976;49.764;9.796;2022-12-10T11:20:24;25.40;;;12.97;;
5900;SDS011;2976;49.764;9.796;2022-12-10T11:22:59;23.50;;;12.67;;
5900;SDS011;2976;49.764;9.796;2022-12-10T11:25:38;25.37;;;13.50;;
5900;SDS011;2976;49.764;9.796;2022-12-10T11:28:14;33.07;;;13.43;;
5900;SDS011;2976;49.764;9.796;2022-12-10T11:30:57;26.07;;;14.30;;
5900;SDS011;2976;49.764;9.796;2022-12-10T11:41:26;37.90;;;15.10;;
5900;SDS011;2976;49.764;9.796;2022-12-10T11:49:28;30.90;;;14.67;;
5900;SDS011;2976;49.764;9.796;2022-12-10T11:52:06;25.93;;;13.53;;
5900;SDS011;2976;49.764;9.796;2022-12-10T12:11:05;20.63;;;11.53;;
5900;SDS011;2976;49.764;9.796;2022-12-10T12:13:57;18.90;;;10.87;;
5900;SDS011;2976;49.764;9.796;2022-12-10T12:16:44;24.50;;;11.93;;
5900;SDS011;2976;49.764;9.796;2022-12-10T12:21:53;21.27;;;12.53;;
5900;SDS011;2976;49.764;9.796;2022-12-10T12:24:21;19.53;;;12.10;;
5900;SDS011;2976;49.764;9.796;2022-12-10T12:26:57;24.20;;;12.47;;
5900;SDS011;2976;49.764;9.796;2022-12-10T12:29:30;19.33;;;12.47;;
5900;SDS011;2976;49.764;9.796;2022-12-10T12:32:02;22.23;;;12.70;;
5900;SDS011;2976;49.764;9.796;2022-12-10T12:34:42;20.97;;;12.10;;
5900;SDS011;2976;49.764;9.796;2022-12-10T12:37:16;24.20;;;12.80;;
5900;SDS011;2976;49.764;9.796;2022-12-10T12:42:38;20.83;;;11.60;;
5900;SDS011;2976;49.764;9.796;2022-12-10T12:51:05;26.10;;;13.47;;
5900;SDS011;2976;49.764;9.796;2022-12-10T12:53:35;23.50;;;12.67;;
5900;SDS011;2976;49.764;9.796;2022-12-10T12:56:20;29.90;;;14.60;;
5900;SDS011;2976;49.764;9.796;2022-12-10T13:01:19;27.67;;;14.27;;
5900;SDS011;2976;49.764;9.796;2022-12-10T13:03:52;24.50;;;13.50;;
5900;SDS011;2976;49.764;9.796;2022-12-10T13:06:29;27.43;;;13.80;;
5900;SDS011;2976;49.764;9.796;2022-12-10T13:11:39;27.53;;;13.90;;
5900;SDS011;2976;49.764;9.796;2022-12-10T13:40:25;31.63;;;16.10;;
5900;SDS011;2976;49.764;9.796;2022-12-10T13:42:58;28.07;;;15.70;;
5900;SDS011;2976;49.764;9.796;2022-12-10T13:49:02;26.03;;;14.20;;
5900;SDS011;2976;49.764;9.796;2022-12-10T13:54:04;24.87;;;14.43;;
5900;SDS011;2976;49.764;9.796;2022-12-10T13:56:39;29.53;;;14.70;;
5900;SDS011;2976;49.764;9.796;2022-12-10T13:59:43;24.80;;;14.03;;
5900;SDS011;2976;49.764;9.796;2022-12-10T14:07:50;28.60;;;15.73;;
5900;SDS011;2976;49.764;9.796;2022-12-10T14:10:26;29.20;;;14.60;;
5900;SDS011;2976;49.764;9.796;2022-12-10T14:12:56;25.53;;;13.70;;
5900;SDS011;2976;49.764;9.796;2022-12-10T14:15:23;28.10;;;14.77;;
5900;SDS011;2976;49.764;9.796;2022-12-10T14:17:59;31.97;;;14.80;;
5900;SDS011;2976;49.764;9.796;2022-12-10T14:20:36;23.50;;;12.63;;
5900;SDS011;2976;49.764;9.796;2022-12-10T14:23:19;30.33;;;13.20;;
5900;SDS011;2976;49.764;9.796;2022-12-10T14:26:15;28.20;;;13.67;;
5900;SDS011;2976;49.764;9.796;2022-12-10T14:28:46;29.53;;;13.27;;
5900;SDS011;2976;49.764;9.796;2022-12-10T14:31:18;25.17;;;13.03;;
5900;SDS011;2976;49.764;9.796;2022-12-10T14:33:55;21.90;;;12.90;;
5900;SDS011;2976;49.764;9.796;2022-12-10T14:36:29;21.53;;;12.50;;
5900;SDS011;2976;49.764;9.796;2022-12-10T14:38:58;20.67;;;11.13;;
5900;SDS011;2976;49.764;9.796;2022-12-10T14:41:24;19.07;;;10.60;;
5900;SDS011;2976;49.764;9.796;2022-12-10T14:43:53;24.37;;;12.10;;
5900;SDS011;2976;49.764;9.796;2022-12-10T14:46:20;20.73;;;10.10;;
5900;SDS011;2976;49.764;9.796;2022-12-10T14:48:52;22.03;;;10.80;;
5900;SDS011;2976;49.764;9.796;2022-12-10T14:51:21;24.70;;;12.07;;
5900;SDS011;2976;49.764;9.796;2022-12-10T14:53:49;23.50;;;12.17;;
5900;SDS011;2976;49.764;9.796;2022-12-10T14:56:26;22.47;;;11.40;;
5900;SDS011;2976;49.764;9.796;2022-12-10T14:58:57;23.30;;;11.93;;
5900;SDS011;2976;49.764;9.796;2022-12-10T15:01:35;22.23;;;11.73;;
5900;SDS011;2976;49.764;9.796;2022-12-10T15:04:03;26.80;;;13.53;;
5900;SDS011;2976;49.764;9.796;2022-12-10T15:06:35;25.47;;;11.80;;
5900;SDS011;2976;49.764;9.796;2022-12-10T15:09:02;26.00;;;12.90;;
5900;SDS011;2976;49.764;9.796;2022-12-10T15:11:29;27.93;;;12.13;;
5900;SDS011;2976;49.764;9.796;2022-12-10T15:13:58;32.47;;;13.77;;
5900;SDS011;2976;49.764;9.796;2022-12-10T15:16:38;37.23;;;14.50;;
5900;SDS011;2976;49.764;9.796;2022-12-10T15:19:08;30.70;;;13.80;;
5900;SDS011;2976;49.764;9.796;2022-12-10T15:21:48;33.77;;;13.50;;
5900;SDS011;2976;49.764;9.796;2022-12-10T15:26:44;34.90;;;13.87;;
5900;SDS011;2976;49.764;9.796;2022-12-10T15:31:46;27.00;;;12.23;;
5900;SDS011;2976;49.764;9.796;2022-12-10T15:34:12;25.07;;;13.33;;
5900;SDS011;2976;49.764;9.796;2022-12-10T15:39:27;31.00;;;13.87;;
5900;SDS011;2976;49.764;9.796;2022-12-10T15:42:08;29.00;;;12.70;;
5900;SDS011;2976;49.764;9.796;2022-12-10T15:44:54;31.63;;;14.23;;
5900;SDS011;2976;49.764;9.796;2022-12-10T15:47:25;33.43;;;15.33;;
5900;SDS011;2976;49.764;9.796;2022-12-10T15:49:53;33.30;;;13.93;;
5900;SDS011;2976;49.764;9.796;2022-12-10T15:54:50;31.63;;;14.43;;
5900;SDS011;2976;49.764;9.796;2022-12-10T15:57:18;30.80;;;16.30;;
5900;SDS011;2976;49.764;9.796;2022-12-10T15:59:53;35.23;;;15.70;;
5900;SDS011;2976;49.764;9.796;2022-12-10T16:04:52;40.03;;;17.00;;
5900;SDS011;2976;49.764;9.796;2022-12-10T16:07:18;39.50;;;18.27;;
5900;SDS011;2976;49.764;9.796;2022-12-10T16:09:44;36.20;;;16.77;;
5900;SDS011;2976;49.764;9.796;2022-12-10T16:12:11;36.97;;;16.77;;
5900;SDS011;2976;49.764;9.796;2022-12-10T16:14:41;38.30;;;18.23;;
5900;SDS011;2976;49.764;9.796;2022-12-10T16:17:16;43.50;;;18.00;;
5900;SDS011;2976;49.764;9.796;2022-12-10T16:19:42;39.43;;;18.43;;
5900;SDS011;2976;49.764;9.796;2022-12-10T16:22:08;43.40;;;18.70;;
5900;SDS011;2976;49.764;9.796;2022-12-10T16:24:34;36.33;;;16.93;;
5900;SDS011;2976;49.764;9.796;2022-12-10T16:26:59;29.90;;;15.77;;
5900;SDS011;2976;49.764;9.796;2022-12-10T16:29:25;39.57;;;17.60;;
5900;SDS011;2976;49.764;9.796;2022-12-10T16:31:50;33.93;;;17.57;;
5900;SDS011;2976;49.764;9.796;2022-12-10T16:34:16;34.37;;;17.23;;
5900;SDS011;2976;49.764;9.796;2022-12-10T16:36:41;38.77;;;17.40;;
5900;SDS011;2976;49.764;9.796;2022-12-10T16:39:07;39.07;;;17.63;;
5900;SDS011;2976;49.764;9.796;2022-12-10T16:41:34;43.63;;;17.90;;
5900;SDS011;2976;49.764;9.796;2022-12-10T16:43:59;32.43;;;16.73;;
5900;SDS011;2976;49.764;9.796;2022-12-10T16:46:25;39.03;;;16.30;;
5900;SDS011;2976;49.764;9.796;2022-12-10T16:48:50;40.23;;;17.90;;
5900;SDS011;2976;49.764;9.796;2022-12-10T16:51:37;45.87;;;17.47;;
5900;SDS011;2976;49.764;9.796;2022-12-10T16:54:02;46.53;;;18.37;;
5900;SDS011;2976;49.764;9.796;2022-12-10T16:56:28;37.23;;;15.87;;
5900;SDS011;2976;49.764;9.796;2022-12-10T16:58:54;39.93;;;16.80;;
5900;SDS011;2976;49.764;9.796;2022-12-10T17:01:24;48.27;;;19.37;;
5900;SDS011;2976;49.764;9.796;2022-12-10T17:03:54;47.13;;;18.40;;
5900;SDS011;2976;49.764;9.796;2022-12-10T17:06:20;44.27;;;19.20;;